Latest Weather Observations for Walpeup RS

IDV60801

Issued at 5:05 am EST Wednesday 23 July 2014 (issued every 30 minutes, with the page automatically refreshed every 10 minutes)

About weather observations | Map of weather stations | Latest weather observations for VIC | Other Formats
Station Details ID: 076064 Name: WALPEUP RESEARCH Lat: -35.12 Lon: 142.00 Height: 105.0 m
Data from the previous 72 hours. | See also: Recent months at Walpeup RS
Date/Time
EST
Temp
°C
App
Temp
°C
Dew
Point
Rel
Hum
%
Delta-T
°C
Wind Press
QNH
hPa
Press
MSL
hPa
Rain
since 9 am
mm
Dir
 
Spd
km/h
Gust
km/h
Spd
kts
Gust
kts
23/05:00am 1.3 -3.0 1.2 99 0.0 ENE 13 19 7 10 - - 0.2
23/04:30am 1.5 -3.1 1.4 99 0.0 ENE 15 19 8 10 - - 0.2
23/04:00am 1.4 -3.2 1.3 99 0.0 ENE 15 20 8 11 - - 0.2
23/03:30am 1.1 -3.6 1.0 99 0.0 ENE 15 19 8 10 - - 0.2
23/03:00am 1.8 -2.4 1.7 99 0.0 E 13 20 7 11 - - 0.2
23/02:30am 2.6 -2.2 2.5 99 0.0 ENE 17 20 9 11 - - 0.2
23/02:00am 2.9 -1.5 2.8 99 0.0 ENE 15 19 8 10 - - 0.2
23/01:30am 2.7 -1.8 2.4 98 0.1 E 15 19 8 10 - - 0.2
23/01:00am 2.9 -1.5 2.6 98 0.1 E 15 20 8 11 - - 0.0
23/12:30am 3.4 -1.3 3.1 98 0.1 E 17 20 9 11 - - 0.0
23/12:00am 4.0 -0.2 3.6 97 0.2 E 15 19 8 10 - - 0.0
 
Date/Time
EST
Temp
°C
App
Temp
°C
Dew
Point
Rel
Hum
%
Delta-T
°C
Wind Press
QNH
hPa
Press
MSL
hPa
Rain
since 9 am
mm
Dir
 
Spd
km/h
Gust
km/h
Spd
kts
Gust
kts
22/11:30pm 4.1 0.2 3.5 96 0.2 E 13 17 7 9 - - 0.0
22/11:00pm 4.1 0.2 3.5 96 0.2 E 13 17 7 9 - - 0.0
22/10:30pm 3.8 -0.5 3.1 95 0.3 E 15 20 8 11 - - 0.0
22/10:00pm 4.2 -0.1 3.3 94 0.4 E 15 20 8 11 - - 0.0
22/09:30pm 4.5 0.2 3.0 90 0.6 E 15 19 8 10 - - 0.0
22/09:00pm 5.1 1.1 3.1 87 0.8 E 13 19 7 10 - - 0.0
22/08:30pm 5.6 2.4 3.1 84 1.0 E 9 13 5 7 - - 0.0
22/08:00pm 6.2 3.0 3.0 80 1.3 E 9 13 5 7 - - 0.0
22/07:30pm 6.6 3.1 3.6 81 1.3 E 11 13 6 7 - - 0.0
22/07:00pm 6.7 3.7 3.9 82 1.2 E 9 11 5 6 - - 0.0
22/06:30pm 6.7 4.0 3.9 82 1.2 E 7 9 4 5 - - 0.0
22/06:00pm 7.0 4.5 3.6 79 1.5 E 6 7 3 4 - - 0.0
22/05:30pm 8.7 6.6 3.7 71 2.2 E 4 7 2 4 - - 0.0
22/05:00pm 9.8 7.2 4.0 67 2.6 E 7 9 4 5 - - 0.0
22/04:30pm 10.5 7.9 4.4 66 2.7 E 7 9 4 5 - - 0.0
22/04:00pm 10.9 8.6 4.6 65 2.9 ENE 6 9 3 5 - - 0.0
22/03:30pm 11.3 9.0 5.6 68 2.6 ENE 7 11 4 6 - - 0.0
22/03:00pm 10.7 8.2 4.8 67 2.7 E 7 11 4 6 - - 0.0
22/02:30pm 10.2 7.9 5.8 74 2.0 E 7 9 4 5 - - 0.0
22/02:00pm 9.3 7.0 5.9 79 1.6 E 7 11 4 6 - - 0.0
22/01:30pm 9.3 7.1 6.0 80 1.5 E 7 11 4 6 - - 0.0
22/01:00pm 8.6 6.3 5.9 83 1.2 E 7 11 4 6 - - 0.0
22/12:30pm 7.5 5.3 6.3 92 0.5 ENE 7 9 4 5 - - 0.0
22/12:00pm 6.5 4.5 6.2 98 0.1 NE 6 9 3 5 - - 0.0
22/11:30am 5.8 3.7 5.7 99 0.0 ENE 6 7 3 4 - - 0.0
22/11:00am 5.1 2.8 5.0 99 0.0 E 6 7 3 4 - - 0.0
22/10:30am 4.2 2.1 4.1 99 0.0 ENE 4 7 2 4 - - 0.0
22/10:00am 2.4 -0.4 2.3 99 0.0 E 6 9 3 5 - - 0.0
22/09:30am 1.8 -1.1 1.7 99 0.0 E 6 9 3 5 - - 0.0
22/09:00am 1.0 -2.9 0.9 99 0.0 E 11 15 6 8 - - 0.2
22/08:30am 0.4 -4.0 0.3 99 0.0 E 13 17 7 9 - - 0.2
22/08:00am 0.5 -3.5 0.4 99 0.0 E 11 15 6 8 - - 0.2
22/07:30am 1.3 -2.2 1.2 99 0.0 E 9 13 5 7 - - 0.2
22/07:00am 2.6 -1.1 2.5 99 0.0 ENE 11 15 6 8 - - 0.2
22/06:30am 2.0 -1.8 1.9 99 0.0 ENE 11 13 6 7 - - 0.2
22/06:00am 1.9 -1.9 1.6 98 0.1 E 11 13 6 7 - - 0.2
22/05:30am 2.6 -0.7 2.3 98 0.1 E 9 11 5 6 - - 0.2
22/05:00am 2.7 -0.3 2.3 97 0.2 E 7 9 4 5 - - 0.2
22/04:30am 3.0 1.0 2.3 95 0.3 ENE 2 7 1 4 - - 0.0
22/04:00am 4.1 0.2 3.5 96 0.2 ENE 13 17 7 9 - - 0.0
22/03:30am 4.4 0.6 3.8 96 0.3 ENE 13 17 7 9 - - 0.0
22/03:00am 4.4 1.0 4.0 97 0.2 ENE 11 15 6 8 - - 0.0
22/02:30am 4.2 0.8 3.8 97 0.2 ENE 11 15 6 8 - - 0.0
22/02:00am 4.3 0.5 3.7 96 0.3 E 13 20 7 11 - - 0.0
22/01:30am 4.8 1.0 4.1 95 0.3 E 13 17 7 9 - - 0.0
22/01:00am 5.1 1.4 4.2 94 0.4 E 13 17 7 9 - - 0.0
22/12:30am 5.4 2.0 4.2 92 0.5 E 11 13 6 7 - - 0.0
22/12:00am 5.4 2.4 4.1 91 0.6 E 9 13 5 7 - - 0.0
 
Date/Time
EST
Temp
°C
App
Temp
°C
Dew
Point
Rel
Hum
%
Delta-T
°C
Wind Press
QNH
hPa
Press
MSL
hPa
Rain
since 9 am
mm
Dir
 
Spd
km/h
Gust
km/h
Spd
kts
Gust
kts
21/11:30pm 6.0 2.7 4.5 90 0.6 E 11 15 6 8 - - 0.0
21/11:00pm 6.5 2.8 4.7 88 0.8 E 13 15 7 8 - - 0.0
21/10:30pm 7.2 3.6 5.0 86 1.0 E 13 17 7 9 - - 0.0
21/10:00pm 7.4 4.2 5.0 85 1.1 E 11 17 6 9 - - 0.0
21/09:30pm 7.2 4.4 5.0 86 1.0 E 9 13 5 7 - - 0.0
21/09:00pm 7.4 4.6 5.0 85 1.1 E 9 13 5 7 - - 0.0
21/08:30pm 7.4 4.6 5.0 85 1.1 E 9 15 5 8 - - 0.0
21/08:00pm 7.6 4.8 5.1 84 1.1 E 9 13 5 7 - - 0.0
21/07:30pm 7.9 4.7 5.0 82 1.3 E 11 15 6 8 - - 0.0
21/07:00pm 8.6 5.5 5.4 80 1.4 E 11 15 6 8 - - 0.0
21/06:30pm 8.7 5.9 5.3 79 1.5 E 9 15 5 8 - - 0.0
21/06:00pm 9.4 6.2 5.2 75 1.9 E 11 15 6 8 - - 0.0
21/05:30pm 9.7 7.4 5.5 75 1.9 E 7 11 4 6 - - 0.0
21/05:00pm 10.6 8.5 5.6 71 2.3 E 6 9 3 5 - - 0.0
21/04:30pm 11.9 9.5 5.3 64 3.1 E 7 11 4 6 - - 0.0
21/04:00pm 12.3 9.5 5.2 62 3.3 ENE 9 13 5 7 - - 0.0
21/03:30pm 11.9 9.1 5.3 64 3.1 E 9 15 5 8 - - 0.0
21/03:00pm 11.6 8.9 5.7 67 2.8 E 9 13 5 7 - - 0.0
21/02:30pm 11.7 9.0 5.8 67 2.8 ENE 9 15 5 8 - - 0.0
21/02:00pm 11.1 8.0 5.4 68 2.6 ENE 11 15 6 8 - - 0.0
21/01:30pm 10.8 7.8 5.8 71 2.3 ENE 11 17 6 9 - - 0.0
21/01:00pm 10.3 7.2 5.7 73 2.1 ENE 11 15 6 8 - - 0.0
21/12:30pm 9.6 6.6 5.8 77 1.7 ENE 11 17 6 9 - - 0.0
21/12:00pm 8.7 5.2 5.4 80 1.5 ENE 13 19 7 10 - - 0.0
21/11:30am 7.8 4.8 5.8 87 0.9 ENE 11 17 6 9 - - 0.0
21/11:00am 6.8 3.6 5.1 89 0.8 ENE 11 17 6 9 - - 0.0
21/10:30am 6.3 2.7 4.9 91 0.6 ENE 13 17 7 9 - - 0.0
21/10:00am 5.7 2.9 5.0 95 0.3 ENE 9 13 5 7 - - 0.0
21/09:30am 4.9 2.0 4.5 97 0.2 ENE 9 17 5 9 - - 0.0
21/09:00am 4.5 1.1 4.2 98 0.1 ENE 11 15 6 8 - - 0.4
21/08:30am 4.4 1.0 4.0 97 0.2 ENE 11 15 6 8 - - 0.4
21/08:00am 4.3 0.9 3.9 97 0.2 ENE 11 17 6 9 - - 0.4
21/07:30am 4.4 0.6 3.8 96 0.3 ENE 13 19 7 10 - - 0.4
21/07:00am 4.1 0.6 3.5 96 0.2 ENE 11 13 6 7 - - 0.0
21/06:30am 4.1 0.6 3.4 95 0.3 ENE 11 15 6 8 - - 0.0
21/06:00am 3.9 0.3 2.9 93 0.4 ENE 11 15 6 8 - - 0.0
21/05:30am 4.6 0.7 3.6 93 0.4 ENE 13 17 7 9 - - 0.0
21/05:00am 4.8 1.0 3.9 94 0.4 ENE 13 20 7 11 - - 0.0
21/04:30am 4.7 0.9 3.7 93 0.4 ENE 13 17 7 9 - - 0.0
21/04:00am 4.5 1.0 3.3 92 0.5 ENE 11 17 6 9 - - 0.0
21/03:30am 5.2 1.4 3.9 91 0.5 E 13 17 7 9 - - 0.0
21/03:00am 5.3 1.9 3.8 90 0.6 E 11 17 6 9 - - 0.0
21/02:30am 5.3 1.9 3.8 90 0.6 E 11 17 6 9 - - 0.0
21/02:00am 5.3 1.6 4.3 93 0.4 E 13 19 7 10 - - 0.0
21/01:30am 5.1 1.7 4.1 93 0.4 E 11 15 6 8 - - 0.0
21/01:00am 5.2 2.5 3.9 91 0.5 E 7 11 4 6 - - 0.0
21/12:30am 6.0 2.3 4.5 90 0.6 E 13 19 7 10 - - 0.0
21/12:00am 6.0 2.7 4.3 89 0.7 E 11 15 6 8 - - 0.0
 
Date/Time
EST
Temp
°C
App
Temp
°C
Dew
Point
Rel
Hum
%
Delta-T
°C
Wind Press
QNH
hPa
Press
MSL
hPa
Rain
since 9 am
mm
Dir
 
Spd
km/h
Gust
km/h
Spd
kts
Gust
kts
20/11:30pm 5.9 2.4 3.6 85 1.0 E 11 17 6 9 - - 0.0
20/11:00pm 6.1 3.0 3.4 83 1.1 E 9 13 5 7 - - 0.0
20/10:30pm 5.7 2.5 3.2 84 1.0 E 9 13 5 7 - - 0.0
20/10:00pm 6.2 2.7 3.5 83 1.1 E 11 15 6 8 - - 0.0
20/09:30pm 6.4 3.4 3.9 84 1.1 E 9 13 5 7 - - 0.0
20/09:00pm 6.8 4.2 4.3 84 1.1 E 7 11 4 6 - - 0.0
20/08:30pm 7.2 4.6 4.3 82 1.3 E 7 9 4 5 - - 0.0
20/08:00pm 7.0 4.6 4.1 82 1.3 E 6 7 3 4 - - 0.0
20/07:30pm 7.7 5.2 4.5 80 1.4 ESE 7 9 4 5 - - 0.0
20/07:00pm 7.6 5.3 4.6 81 1.3 ESE 6 7 3 4 - - 0.0
20/06:30pm 7.3 5.3 4.4 82 1.3 E 4 4 2 2 - - 0.0
20/06:00pm 7.8 5.9 4.7 81 1.4 ENE 4 6 2 3 - - 0.0
20/05:30pm 9.0 7.0 4.4 73 2.0 E 4 4 2 2 - - 0.0
20/05:00pm 9.9 7.7 5.1 72 2.2 E 6 7 3 4 - - 0.0
20/04:30pm 10.4 8.1 5.0 69 2.5 ESE 6 9 3 5 - - 0.0
20/04:00pm 10.9 9.0 4.8 66 2.8 ENE 4 7 2 4 - - 0.0
20/03:30pm 11.1 9.2 4.8 65 2.9 E 4 7 2 4 - - 0.0
20/03:00pm 11.0 9.0 4.5 64 2.9 NE 4 7 2 4 - - 0.0
20/02:30pm 10.9 8.9 4.6 65 2.9 NE 4 7 2 4 - - 0.0
20/02:00pm 11.0 9.1 4.7 65 2.9 E 4 7 2 4 - - 0.0
20/01:30pm 10.7 8.7 4.6 66 2.8 NNE 4 7 2 4 - - 0.0
20/01:00pm 10.7 8.5 5.3 69 2.5 NE 6 11 3 6 - - 0.0
20/12:30pm 10.4 8.5 4.8 68 2.5 NNE 4 11 2 6 - - 0.0
20/12:00pm 10.3 8.1 5.1 70 2.4 NE 6 9 3 5 - - 0.0
20/11:30am 9.9 7.5 5.1 72 2.2 ENE 7 9 4 5 - - 0.0
20/11:00am 9.4 6.9 4.8 73 2.1 NE 7 13 4 7 - - 0.0
20/10:30am 8.5 6.2 4.9 78 1.6 ENE 6 9 3 5 - - 0.0
20/10:00am 7.1 4.8 4.6 84 1.1 ENE 6 7 3 4 - - 0.0
20/09:30am 5.8 4.0 3.3 84 1.0 ENE 2 4 1 2 - - 0.0
20/09:00am 4.9 2.2 2.8 86 0.9 ENE 6 7 3 4 - - 0.0
20/08:30am 3.7 0.9 2.1 89 0.6 E 6 7 3 4 - - 0.0
20/08:00am 3.4 0.5 1.6 88 0.7 E 6 9 3 5 - - 0.0
20/07:30am 3.3 0.3 1.8 90 0.6 E 7 9 4 5 - - 0.0
20/07:00am 3.2 0.3 1.7 90 0.6 E 6 9 3 5 - - 0.0
20/06:30am 3.0 -0.1 1.5 90 0.6 E 7 9 4 5 - - 0.0
20/06:00am 3.2 0.1 1.6 89 0.6 E 7 11 4 6 - - 0.0
20/05:30am 3.4 0.4 1.8 89 0.6 ESE 7 11 4 6 - - 0.0

Other Formats:

Comma delimited format used in spreadsheet applications
http://www.bom.gov.au/fwo/IDV60801/IDV60801.95831.axf

JavaScript Object Notation format (JSON) in row-major order
http://www.bom.gov.au/fwo/IDV60801/IDV60801.95831.json